createdAt,value
2018-07-24T00:01:07.031Z,13.50
2018-07-24T00:03:34.125Z,16.03
2018-07-24T00:06:01.269Z,14.27
2018-07-24T00:08:28.308Z,14.47
2018-07-24T00:10:55.539Z,14.73
2018-07-24T00:13:22.643Z,15.60
2018-07-24T00:15:49.710Z,16.50
2018-07-24T00:18:19.770Z,15.67
2018-07-24T00:20:46.837Z,15.87
2018-07-24T00:23:16.890Z,13.83
2018-07-24T00:25:46.920Z,16.57
2018-07-24T00:28:15.041Z,15.13
2018-07-24T00:30:44.070Z,14.00
2018-07-24T00:33:11.092Z,16.40
2018-07-24T00:35:43.252Z,16.83
2018-07-24T00:38:13.436Z,14.70
2018-07-24T00:40:41.590Z,17.07
2018-07-24T00:43:08.982Z,15.70
2018-07-24T00:45:42.405Z,15.90
2018-07-24T00:48:23.880Z,14.10
2018-07-24T00:50:55.339Z,13.57
2018-07-24T00:53:25.414Z,18.10
2018-07-24T00:55:58.637Z,18.10
2018-07-24T00:58:32.072Z,17.40
2018-07-24T01:00:59.088Z,16.63
2018-07-24T01:03:32.381Z,17.60
2018-07-24T01:06:02.484Z,16.60
2018-07-24T01:08:30.750Z,13.97
2018-07-24T01:11:00.840Z,15.60
2018-07-24T01:13:28.513Z,16.10
2018-07-24T01:15:55.552Z,17.80
2018-07-24T01:18:25.623Z,16.97
2018-07-24T01:20:53.757Z,15.83
2018-07-24T01:23:20.819Z,16.83
2018-07-24T01:25:47.915Z,18.10
2018-07-24T01:28:15.082Z,18.83
2018-07-24T01:30:43.127Z,16.20
2018-07-24T01:33:11.080Z,18.30
2018-07-24T01:35:38.200Z,20.60
2018-07-24T01:38:06.012Z,18.00
2018-07-24T01:40:33.123Z,16.80
2018-07-24T01:43:00.244Z,17.75
2018-07-24T01:45:27.245Z,14.87
2018-07-24T01:47:54.820Z,15.13
2018-07-24T01:50:21.980Z,15.78
2018-07-24T01:52:49.071Z,14.83
2018-07-24T01:55:21.867Z,14.50
2018-07-24T01:57:49.626Z,13.93
2018-07-24T02:00:17.560Z,17.07
2018-07-24T02:02:48.219Z,15.98
2018-07-24T02:05:18.344Z,15.70
2018-07-24T02:07:45.357Z,16.23
2018-07-24T02:10:12.372Z,16.33
2018-07-24T02:12:39.486Z,18.07
2018-07-24T02:15:08.659Z,18.00
2018-07-24T02:17:40.618Z,16.53
2018-07-24T02:20:08.541Z,16.90
2018-07-24T02:22:35.650Z,15.43
2018-07-24T02:25:06.000Z,16.60
2018-07-24T02:27:33.774Z,16.53
2018-07-24T02:30:00.852Z,17.60
2018-07-24T02:32:28.988Z,17.13
2018-07-24T02:34:57.643Z,20.07
2018-07-24T02:37:25.159Z,22.07
2018-07-24T02:39:54.300Z,20.57
2018-07-24T02:42:27.699Z,20.00
2018-07-24T02:44:55.133Z,18.40
2018-07-24T02:47:24.204Z,19.03
2018-07-24T02:49:54.392Z,17.00
2018-07-24T02:52:24.440Z,17.40
2018-07-24T02:54:51.613Z,18.10
2018-07-24T02:57:23.424Z,17.93
2018-07-24T02:59:50.466Z,19.40
2018-07-24T03:02:20.510Z,17.70
2018-07-24T03:04:52.598Z,17.50
2018-07-24T03:07:20.566Z,16.77
2018-07-24T03:09:47.616Z,15.40
2018-07-24T03:12:14.690Z,19.95
2018-07-24T03:14:41.776Z,18.23
2018-07-24T03:17:12.739Z,18.53
2018-07-24T03:19:39.833Z,17.60
2018-07-24T03:22:11.098Z,18.63
2018-07-24T03:24:43.136Z,16.93
2018-07-24T03:27:12.337Z,16.87
2018-07-24T03:29:40.101Z,16.25
2018-07-24T03:32:07.145Z,19.80
2018-07-24T03:34:34.221Z,19.30
2018-07-24T03:37:10.733Z,19.90
2018-07-24T03:39:38.634Z,16.90
2018-07-24T03:42:06.711Z,19.80
2018-07-24T03:44:34.635Z,20.13
2018-07-24T03:47:05.470Z,20.50
2018-07-24T03:49:35.142Z,19.93
2018-07-24T03:52:03.121Z,22.20
2018-07-24T03:54:30.224Z,22.67
2018-07-24T03:56:57.358Z,22.90
2018-07-24T03:59:25.139Z,23.25
2018-07-24T04:01:53.121Z,19.63
2018-07-24T04:04:22.156Z,21.62
2018-07-24T04:06:49.274Z,21.03
2018-07-24T04:09:20.188Z,18.53
2018-07-24T04:11:51.475Z,18.90
2018-07-24T04:14:24.596Z,16.30
2018-07-24T04:16:51.651Z,17.00
2018-07-24T04:19:18.666Z,15.70
2018-07-24T04:21:46.727Z,16.80
2018-07-24T04:24:18.709Z,15.40
2018-07-24T04:26:47.743Z,15.77
2018-07-24T04:29:18.924Z,14.97
2018-07-24T04:31:45.969Z,13.90
2018-07-24T04:34:14.064Z,14.53
2018-07-24T04:36:42.183Z,13.10
2018-07-24T04:39:12.353Z,12.50
2018-07-24T04:41:41.164Z,11.93
2018-07-24T04:44:08.325Z,12.83
2018-07-24T04:46:38.861Z,13.60
2018-07-24T04:49:06.656Z,13.55
2018-07-24T04:51:35.792Z,12.03
2018-07-24T04:54:05.896Z,11.80
2018-07-24T04:56:32.993Z,12.40
2018-07-24T04:59:00.175Z,12.33
2018-07-24T05:01:27.295Z,13.10
2018-07-24T05:03:54.519Z,13.80
2018-07-24T05:06:22.612Z,13.70
2018-07-24T05:08:50.673Z,15.13
2018-07-24T05:11:17.696Z,15.00
2018-07-24T05:13:46.655Z,14.90
2018-07-24T05:16:14.044Z,17.50
2018-07-24T05:18:41.670Z,18.23
2018-07-24T05:21:11.952Z,19.45
2018-07-24T05:23:42.051Z,20.30
2018-07-24T05:26:12.103Z,18.97
2018-07-24T05:28:39.202Z,19.10
2018-07-24T05:31:06.258Z,19.23
2018-07-24T05:33:33.325Z,19.90
2018-07-24T05:36:10.172Z,18.87
2018-07-24T05:38:39.300Z,20.75
2018-07-24T05:41:07.265Z,22.30
2018-07-24T05:43:37.402Z,21.77
2018-07-24T05:46:06.131Z,21.90
2018-07-24T05:48:33.210Z,21.80
2018-07-24T05:51:00.323Z,22.33
2018-07-24T05:53:33.675Z,25.30
2018-07-24T05:56:01.758Z,24.57
2018-07-24T05:58:29.755Z,27.40
2018-07-24T06:00:57.843Z,27.60
2018-07-24T06:03:25.009Z,27.55
2018-07-24T06:05:55.289Z,27.20
2018-07-24T06:08:26.896Z,26.00
2018-07-24T06:10:53.981Z,26.80
2018-07-24T06:13:21.089Z,28.67
2018-07-24T06:15:57.732Z,28.02
2018-07-24T06:18:25.180Z,28.30
2018-07-24T06:20:55.262Z,27.53
2018-07-24T06:23:26.511Z,28.43
2018-07-24T06:25:59.977Z,25.00
2018-07-24T06:28:33.364Z,24.43
2018-07-24T06:31:04.799Z,22.00
2018-07-24T06:33:35.842Z,21.53
2018-07-24T06:36:02.982Z,23.00
2018-07-24T06:38:30.065Z,22.07
2018-07-24T06:41:09.195Z,21.07
2018-07-24T06:43:38.294Z,21.00
2018-07-24T06:46:15.093Z,21.57
2018-07-24T06:48:51.900Z,20.77
2018-07-24T06:51:18.957Z,21.60
2018-07-24T06:53:46.084Z,20.60
2018-07-24T06:56:14.231Z,20.10
2018-07-24T06:58:42.295Z,20.40
2018-07-24T07:01:09.349Z,19.77
2018-07-24T07:03:36.456Z,19.47
2018-07-24T07:06:03.620Z,18.33
2018-07-24T07:08:30.676Z,18.70
2018-07-24T07:10:57.783Z,18.10
2018-07-24T07:13:24.902Z,18.90
2018-07-24T07:15:51.921Z,18.53
2018-07-24T07:18:18.960Z,17.07
2018-07-24T07:20:50.607Z,17.17
2018-07-24T07:23:20.714Z,18.02
2018-07-24T07:25:50.808Z,17.20
2018-07-24T07:28:17.970Z,18.10
2018-07-24T07:30:45.079Z,16.47
2018-07-24T07:33:13.237Z,16.80
2018-07-24T07:35:42.265Z,14.93
2018-07-24T07:38:10.247Z,14.60
2018-07-24T07:40:40.863Z,15.33
2018-07-24T07:43:08.745Z,15.00
2018-07-24T07:45:35.819Z,16.20
2018-07-24T07:48:02.886Z,15.87
2018-07-24T07:50:31.954Z,16.37
2018-07-24T07:53:03.054Z,15.40
2018-07-24T07:55:30.291Z,15.53
2018-07-24T07:58:00.933Z,14.83
2018-07-24T08:00:32.924Z,15.80
2018-07-24T08:03:00.022Z,13.37
2018-07-24T08:05:27.154Z,14.80
2018-07-24T08:07:54.287Z,12.63
2018-07-24T08:10:23.337Z,13.30
2018-07-24T08:12:50.404Z,13.58
2018-07-24T08:15:18.521Z,12.37
2018-07-24T08:17:47.349Z,12.40
2018-07-24T08:20:15.330Z,11.67
2018-07-24T08:22:46.251Z,11.87
2018-07-24T08:25:14.318Z,12.10
2018-07-24T08:27:41.405Z,12.00
2018-07-24T08:30:12.072Z,11.60
2018-07-24T08:32:40.815Z,11.30
2018-07-24T08:35:11.992Z,10.80
2018-07-24T08:37:41.939Z,10.63
2018-07-24T08:40:10.991Z,10.70
2018-07-24T08:42:38.269Z,11.10
2018-07-24T08:45:05.804Z,11.80
2018-07-24T08:47:32.918Z,11.33
2018-07-24T08:49:59.989Z,11.30
2018-07-24T08:52:27.127Z,11.27
2018-07-24T08:54:57.426Z,10.55
2018-07-24T08:57:24.292Z,10.90
2018-07-24T08:59:52.391Z,11.20
2018-07-24T09:02:20.363Z,9.20
2018-07-24T09:04:47.415Z,10.23
2018-07-24T09:07:14.517Z,10.75
2018-07-24T09:09:41.609Z,10.90
2018-07-24T09:12:08.758Z,9.57
2018-07-24T09:14:35.987Z,10.60
2018-07-24T09:17:06.020Z,10.00
2018-07-24T09:19:33.196Z,10.47
2018-07-24T09:22:00.373Z,11.43
2018-07-24T09:24:28.317Z,11.30
2018-07-24T09:26:55.454Z,11.75
2018-07-24T09:29:23.386Z,11.90
2018-07-24T09:31:50.474Z,11.63
2018-07-24T09:34:19.332Z,11.80
2018-07-24T09:36:46.486Z,11.63
2018-07-24T09:39:13.628Z,11.90
2018-07-24T09:41:43.917Z,12.60
2018-07-24T09:44:11.881Z,11.93
2018-07-24T09:46:38.943Z,10.60
2018-07-24T09:49:06.010Z,12.40
2018-07-24T09:51:36.284Z,11.70
2018-07-24T09:54:04.502Z,10.93
2018-07-24T09:56:32.226Z,10.73
2018-07-24T09:59:02.329Z,10.43
2018-07-24T10:01:33.254Z,11.20
2018-07-24T10:04:00.884Z,9.85
2018-07-24T10:06:33.285Z,9.40
2018-07-24T10:09:05.332Z,9.60
2018-07-24T10:11:35.375Z,9.60
2018-07-24T10:14:02.530Z,9.13
2018-07-24T10:16:30.006Z,8.47
2018-07-24T10:19:01.248Z,10.50
2018-07-24T10:21:28.909Z,9.63
2018-07-24T10:23:58.071Z,8.37
2018-07-24T10:26:25.964Z,7.90
2018-07-24T10:28:55.241Z,7.67
2018-07-24T10:31:22.413Z,7.27
2018-07-24T10:33:49.491Z,8.83
2018-07-24T10:36:16.564Z,8.10
2018-07-24T10:38:43.638Z,7.10
2018-07-24T10:41:10.755Z,7.40
2018-07-24T10:43:37.893Z,6.63
2018-07-24T10:46:05.091Z,8.00
2018-07-24T10:48:34.895Z,8.63
2018-07-24T10:51:02.889Z,9.40
2018-07-24T10:53:33.435Z,7.80
2018-07-24T10:56:01.567Z,8.60
2018-07-24T10:58:28.660Z,8.17
2018-07-24T11:00:55.916Z,8.25
2018-07-24T11:03:23.151Z,8.63
2018-07-24T11:05:51.109Z,8.50
2018-07-24T11:08:25.295Z,8.63
2018-07-24T11:10:53.461Z,8.37
2018-07-24T11:13:20.455Z,9.77
2018-07-24T11:15:47.537Z,7.97
2018-07-24T11:18:14.645Z,8.20
2018-07-24T11:20:42.509Z,7.20
2018-07-24T11:23:10.816Z,7.30
2018-07-24T11:25:40.833Z,7.13
2018-07-24T11:28:07.929Z,7.60
2018-07-24T11:30:36.976Z,6.60
2018-07-24T11:33:04.146Z,6.00
2018-07-24T11:35:31.389Z,6.83
2018-07-24T11:38:00.487Z,6.70
2018-07-24T11:40:27.604Z,6.80
2018-07-24T11:42:54.781Z,6.30
2018-07-24T11:45:23.949Z,6.10
2018-07-24T11:47:51.923Z,6.60
2018-07-24T11:50:22.137Z,6.00
2018-07-24T11:52:51.052Z,5.77
2018-07-24T11:55:21.109Z,6.00
2018-07-24T11:57:51.264Z,5.57
2018-07-24T12:00:18.321Z,6.00
2018-07-24T12:02:45.397Z,5.27
2018-07-24T12:05:14.647Z,5.23
2018-07-24T12:07:41.749Z,6.20
2018-07-24T12:10:08.862Z,6.00
2018-07-24T12:12:37.141Z,5.20
2018-07-24T12:15:04.869Z,5.50
2018-07-24T12:17:32.452Z,5.53
2018-07-24T12:19:59.631Z,5.57
2018-07-24T12:22:27.751Z,6.87
2018-07-24T12:25:06.541Z,5.87
2018-07-24T12:27:39.967Z,6.13
2018-07-24T12:30:08.108Z,5.67
2018-07-24T12:32:35.971Z,5.57
2018-07-24T12:35:07.609Z,6.17
2018-07-24T12:37:34.789Z,5.63
2018-07-24T12:40:01.966Z,5.60
2018-07-24T12:42:29.106Z,5.37
2018-07-24T12:45:00.942Z,5.70
2018-07-24T12:47:29.005Z,5.43
2018-07-24T12:49:59.915Z,4.77
2018-07-24T12:52:28.985Z,6.03
2018-07-24T12:54:59.028Z,5.70
2018-07-24T12:57:26.301Z,5.40
2018-07-24T12:59:54.110Z,5.70
2018-07-24T13:02:21.354Z,5.07
2018-07-24T13:04:48.528Z,5.40
2018-07-24T13:07:15.713Z,5.47
2018-07-24T13:09:42.939Z,5.17
2018-07-24T13:12:11.122Z,5.77
2018-07-24T13:14:38.981Z,5.50
2018-07-24T13:17:06.203Z,5.83
2018-07-24T13:19:33.517Z,5.17
2018-07-24T13:22:00.748Z,5.42
2018-07-24T13:24:27.845Z,5.30
2018-07-24T13:26:59.284Z,5.27
2018-07-24T13:29:27.063Z,4.80
2018-07-24T13:31:54.395Z,4.50
2018-07-24T13:34:21.297Z,4.90
2018-07-24T13:36:48.479Z,5.40
2018-07-24T13:39:15.593Z,5.03
2018-07-24T13:41:42.744Z,5.17
2018-07-24T13:44:10.034Z,5.20
2018-07-24T13:46:40.158Z,5.10
2018-07-24T13:49:09.079Z,5.23
2018-07-24T13:51:37.107Z,4.90
2018-07-24T13:54:04.240Z,4.80
2018-07-24T13:56:31.316Z,5.13
2018-07-24T13:58:59.450Z,4.83
2018-07-24T14:01:26.553Z,5.27
2018-07-24T14:03:55.637Z,5.40
2018-07-24T14:06:24.507Z,5.10
2018-07-24T14:08:51.702Z,5.30
2018-07-24T14:11:18.847Z,4.60
2018-07-24T14:13:45.933Z,5.10
2018-07-24T14:16:13.096Z,4.87
2018-07-24T14:18:40.189Z,5.30
2018-07-24T14:21:07.550Z,5.25
2018-07-24T14:23:34.631Z,4.97
2018-07-24T14:26:02.014Z,5.10
2018-07-24T14:28:29.071Z,5.10
2018-07-24T14:30:56.193Z,4.87
2018-07-24T14:33:23.371Z,4.83
2018-07-24T14:35:50.594Z,5.13
2018-07-24T14:38:17.783Z,4.63
2018-07-24T14:40:44.908Z,4.67
2018-07-24T14:43:13.128Z,5.08
2018-07-24T14:45:41.081Z,5.10
2018-07-24T14:48:08.137Z,4.80
2018-07-24T14:50:35.996Z,4.57
2018-07-24T14:53:03.104Z,5.10
2018-07-24T14:55:30.194Z,4.97
2018-07-24T14:57:57.284Z,4.77
2018-07-24T15:00:24.681Z,4.70
2018-07-24T15:02:52.514Z,4.55
2018-07-24T15:05:19.592Z,4.57
2018-07-24T15:07:46.668Z,4.93
2018-07-24T15:10:13.877Z,4.87
2018-07-24T15:12:44.155Z,5.00
2018-07-24T15:15:14.636Z,4.30
2018-07-24T15:17:43.679Z,4.80
2018-07-24T15:20:10.860Z,4.37
2018-07-24T15:22:39.050Z,5.37
2018-07-24T15:25:06.103Z,4.87
2018-07-24T15:27:33.212Z,4.67
2018-07-24T15:30:00.285Z,4.97
2018-07-24T15:32:29.219Z,4.20
2018-07-24T15:34:56.405Z,4.73
2018-07-24T15:37:23.416Z,5.53
2018-07-24T15:39:52.266Z,4.53
2018-07-24T15:42:19.544Z,4.80
2018-07-24T15:44:46.741Z,5.17
2018-07-24T15:47:13.976Z,4.77
2018-07-24T15:49:42.154Z,4.83
2018-07-24T15:52:09.397Z,4.70
2018-07-24T15:54:36.943Z,4.73
2018-07-24T15:57:04.024Z,4.30
2018-07-24T15:59:34.280Z,4.37
2018-07-24T16:02:01.449Z,4.20
2018-07-24T16:04:28.667Z,4.60
2018-07-24T16:06:55.833Z,3.80
2018-07-24T16:09:24.782Z,4.50
2018-07-24T16:11:51.998Z,4.60
2018-07-24T16:14:20.183Z,4.53
2018-07-24T16:16:47.229Z,4.60
2018-07-24T16:19:14.351Z,3.93
2018-07-24T16:21:41.425Z,4.70
2018-07-24T16:24:08.685Z,4.60
2018-07-24T16:26:35.841Z,4.13
2018-07-24T16:29:03.234Z,4.50
2018-07-24T16:31:30.343Z,4.53
2018-07-24T16:33:58.655Z,4.27
2018-07-24T16:36:25.980Z,4.50
2018-07-24T16:38:53.103Z,4.10
2018-07-24T16:41:21.373Z,4.10
2018-07-24T16:43:48.461Z,4.30
2018-07-24T16:46:15.755Z,3.80
2018-07-24T16:48:42.970Z,3.80
2018-07-24T16:51:10.071Z,3.67
2018-07-24T16:53:37.274Z,4.17
2018-07-24T16:56:04.453Z,4.00
2018-07-24T16:58:31.698Z,4.10
2018-07-24T17:00:58.901Z,3.53
2018-07-24T17:03:26.153Z,3.80
2018-07-24T17:05:53.451Z,4.13
2018-07-24T17:08:21.295Z,4.27
2018-07-24T17:10:49.306Z,3.80
2018-07-24T17:13:16.405Z,3.92
2018-07-24T17:15:43.522Z,4.20
2018-07-24T17:18:10.695Z,4.27
2018-07-24T17:20:37.836Z,4.00
2018-07-24T17:23:12.672Z,4.07
2018-07-24T17:25:42.853Z,3.90
2018-07-24T17:28:10.014Z,3.87
2018-07-24T17:30:37.164Z,4.63
2018-07-24T17:33:04.380Z,3.90
2018-07-24T17:35:31.665Z,4.10
2018-07-24T17:37:58.732Z,3.67
2018-07-24T17:40:27.809Z,4.10
2018-07-24T17:42:55.318Z,4.00
2018-07-24T17:45:22.549Z,3.72
2018-07-24T17:47:49.682Z,4.10
2018-07-24T17:50:16.969Z,4.30
2018-07-24T17:52:45.889Z,3.70
2018-07-24T17:55:13.138Z,4.25
2018-07-24T17:57:42.287Z,3.93
2018-07-24T18:00:12.375Z,3.70
2018-07-24T18:02:39.561Z,4.20
2018-07-24T18:05:06.652Z,4.17
2018-07-24T18:07:40.925Z,4.40
2018-07-24T18:10:08.101Z,3.93
2018-07-24T18:12:38.265Z,4.00
2018-07-24T18:15:05.432Z,3.63
2018-07-24T18:17:32.559Z,4.37
2018-07-24T18:20:00.362Z,4.20
2018-07-24T18:22:28.338Z,4.80
2018-07-24T18:24:55.518Z,4.30
2018-07-24T18:27:23.334Z,4.40
2018-07-24T18:29:50.587Z,4.80
2018-07-24T18:32:18.320Z,4.90
2018-07-24T18:34:45.453Z,4.92
2018-07-24T18:37:13.569Z,5.50
2018-07-24T18:39:40.737Z,5.50
2018-07-24T18:42:07.920Z,5.50
2018-07-24T18:44:35.145Z,5.30
2018-07-24T18:47:03.257Z,5.67
2018-07-24T18:49:30.354Z,6.13
2018-07-24T18:51:58.557Z,6.08
2018-07-24T18:54:25.609Z,6.03
2018-07-24T18:56:52.976Z,7.97
2018-07-24T18:59:20.777Z,7.03
2018-07-24T19:01:55.921Z,6.90
2018-07-24T19:04:23.127Z,6.80
2018-07-24T19:06:51.221Z,6.37
2018-07-24T19:09:18.302Z,6.10
2018-07-24T19:11:45.502Z,6.70
2018-07-24T19:14:16.532Z,7.47
2018-07-24T19:16:49.971Z,7.67
2018-07-24T19:19:17.846Z,6.80
2018-07-24T19:21:44.935Z,7.00
2018-07-24T19:24:12.120Z,7.20
2018-07-24T19:26:39.493Z,8.37
2018-07-24T19:29:06.670Z,7.97
2018-07-24T19:31:33.805Z,7.20
2018-07-24T19:34:00.940Z,6.67
2018-07-24T19:36:28.688Z,7.20
2018-07-24T19:38:55.888Z,7.00
2018-07-24T19:41:23.836Z,7.10
2018-07-24T19:43:50.959Z,6.60
2018-07-24T19:46:21.200Z,7.40
2018-07-24T19:48:50.278Z,6.50
2018-07-24T19:51:17.380Z,7.50
2018-07-24T19:53:47.975Z,7.33
2018-07-24T19:56:15.114Z,7.50
2018-07-24T19:58:42.349Z,6.53
2018-07-24T20:01:09.944Z,6.90
2018-07-24T20:03:37.285Z,7.10
2018-07-24T20:06:05.288Z,7.00
2018-07-24T20:08:34.220Z,7.70
2018-07-24T20:11:01.457Z,8.30
2018-07-24T20:13:32.352Z,7.40
2018-07-24T20:15:59.619Z,7.50
2018-07-24T20:18:30.575Z,8.30
2018-07-24T20:21:00.721Z,8.17
2018-07-24T20:23:27.870Z,9.10
2018-07-24T20:25:55.828Z,8.30
2018-07-24T20:28:26.876Z,8.80
2018-07-24T20:30:54.213Z,8.80
2018-07-24T20:33:21.591Z,8.70
2018-07-24T20:35:48.729Z,8.90
2018-07-24T20:38:16.951Z,8.40
2018-07-24T20:40:48.151Z,9.40
2018-07-24T20:43:15.927Z,9.20
2018-07-24T20:45:43.000Z,9.60
2018-07-24T20:48:10.809Z,9.60
2018-07-24T20:50:39.878Z,9.80
2018-07-24T20:53:07.048Z,10.00
2018-07-24T20:55:40.319Z,9.23
2018-07-24T20:58:10.785Z,9.57
2018-07-24T21:00:40.899Z,9.47
2018-07-24T21:03:08.017Z,9.40
2018-07-24T21:05:35.153Z,9.30
2018-07-24T21:08:03.313Z,10.10
2018-07-24T21:10:31.391Z,9.70
2018-07-24T21:13:00.417Z,10.33
2018-07-24T21:15:30.557Z,9.60
2018-07-24T21:17:57.585Z,9.13
2018-07-24T21:20:24.659Z,10.70
2018-07-24T21:22:52.434Z,10.03
2018-07-24T21:25:20.335Z,10.17
2018-07-24T21:27:47.375Z,9.23
2018-07-24T21:30:14.528Z,9.53
2018-07-24T21:32:42.302Z,9.20
2018-07-24T21:35:09.469Z,9.90
2018-07-24T21:37:36.504Z,10.40
2018-07-24T21:40:05.386Z,9.70
2018-07-24T21:42:38.843Z,9.90
2018-07-24T21:45:05.825Z,9.30
2018-07-24T21:47:32.881Z,9.70
2018-07-24T21:49:59.951Z,9.83
2018-07-24T21:52:27.079Z,9.50
2018-07-24T21:55:00.271Z,8.97
2018-07-24T21:57:30.324Z,9.75
2018-07-24T21:59:58.463Z,9.63
2018-07-24T22:02:26.332Z,9.80
2018-07-24T22:04:54.500Z,9.20
2018-07-24T22:07:21.568Z,9.40
2018-07-24T22:09:52.431Z,8.67
2018-07-24T22:12:20.424Z,9.00
2018-07-24T22:14:48.318Z,9.98
2018-07-24T22:17:15.387Z,10.07
2018-07-24T22:19:51.376Z,11.53
2018-07-24T22:22:19.363Z,11.40
2018-07-24T22:24:47.382Z,11.57
2018-07-24T22:27:21.620Z,12.47
2018-07-24T22:29:56.326Z,13.23
2018-07-24T22:32:27.816Z,11.87
2018-07-24T22:34:54.943Z,12.67
2018-07-24T22:37:22.945Z,13.72
2018-07-24T22:39:50.718Z,13.47
2018-07-24T22:42:21.326Z,13.40
2018-07-24T22:44:48.507Z,15.28
2018-07-24T22:47:18.365Z,14.77
2018-07-24T22:49:52.523Z,14.03
2018-07-24T22:52:26.041Z,14.77
2018-07-24T22:54:53.129Z,15.00
2018-07-24T22:57:20.167Z,14.00
2018-07-24T22:59:47.245Z,13.27
2018-07-24T23:02:22.527Z,12.63
2018-07-24T23:04:50.359Z,14.03
2018-07-24T23:07:17.475Z,14.47
2018-07-24T23:09:52.432Z,13.67
2018-07-24T23:12:20.738Z,14.63
2018-07-24T23:14:55.283Z,13.00
2018-07-24T23:17:22.408Z,14.40
2018-07-24T23:19:52.303Z,12.90
2018-07-24T23:22:20.422Z,12.40
2018-07-24T23:24:48.560Z,12.17
2018-07-24T23:27:15.676Z,13.50
2018-07-24T23:29:42.744Z,11.97
2018-07-24T23:32:10.362Z,12.50
2018-07-24T23:34:38.451Z,11.60
2018-07-24T23:37:12.009Z,12.80
2018-07-24T23:39:39.133Z,14.10
2018-07-24T23:42:06.207Z,14.23
2018-07-24T23:44:33.290Z,14.20
2018-07-24T23:47:00.374Z,14.10
2018-07-24T23:49:27.576Z,14.63
2018-07-24T23:52:00.911Z,13.60
2018-07-24T23:54:31.417Z,13.30
2018-07-24T23:56:59.422Z,14.00
2018-07-24T23:59:26.458Z,14.20
